createdAt,value
2022-08-25T00:00:05.664Z,60.76
2022-08-25T00:00:45.329Z,61.17
2022-08-25T00:01:27.061Z,61.88
2022-08-25T00:02:08.189Z,62.28
2022-08-25T00:02:48.506Z,63.27
2022-08-25T00:03:28.994Z,64.15
2022-08-25T00:04:11.920Z,64.03
2022-08-25T00:04:53.585Z,63.40
2022-08-25T00:05:32.345Z,62.64
2022-08-25T00:06:07.525Z,61.46
2022-08-25T00:06:43.484Z,60.28
2022-08-25T00:07:18.661Z,58.96
2022-08-25T00:07:51.992Z,57.88
2022-08-25T00:08:25.106Z,57.61
2022-08-25T00:09:00.061Z,57.62
2022-08-25T00:09:35.312Z,57.96
2022-08-25T00:10:09.523Z,58.69
2022-08-25T00:10:42.968Z,59.57
2022-08-25T00:11:30.446Z,60.04
2022-08-25T00:12:06.250Z,60.63
2022-08-25T00:12:39.463Z,61.30
2022-08-25T00:13:12.925Z,61.85
2022-08-25T00:13:52.944Z,62.36
2022-08-25T00:14:33.706Z,62.87
2022-08-25T00:15:07.089Z,64.14
2022-08-25T00:15:40.840Z,64.38
2022-08-25T00:16:16.955Z,63.39
2022-08-25T00:16:50.794Z,62.79
2022-08-25T00:17:23.868Z,62.27
2022-08-25T00:17:57.583Z,61.57
2022-08-25T00:18:30.736Z,61.20
2022-08-25T00:19:11.847Z,60.65
2022-08-25T00:19:45.455Z,60.78
2022-08-25T00:20:19.170Z,60.15
2022-08-25T00:20:52.645Z,59.77
2022-08-25T00:21:26.864Z,59.26
2022-08-25T00:22:01.814Z,58.86
2022-08-25T00:22:35.055Z,58.96
2022-08-25T00:23:08.208Z,59.10
2022-08-25T00:23:42.695Z,59.33
2022-08-25T00:24:19.805Z,59.78
2022-08-25T00:24:53.248Z,60.23
2022-08-25T00:25:27.244Z,60.70
2022-08-25T00:26:02.746Z,61.11
2022-08-25T00:26:40.094Z,61.56
2022-08-25T00:27:13.282Z,62.26
2022-08-25T00:27:47.640Z,62.99
2022-08-25T00:28:21.462Z,63.57
2022-08-25T00:29:01.681Z,63.46
2022-08-25T00:29:38.262Z,63.98
2022-08-25T00:30:12.318Z,63.77
2022-08-25T00:30:49.884Z,61.28
2022-08-25T00:31:37.707Z,60.26
2022-08-25T00:32:13.103Z,59.82
2022-08-25T00:32:51.453Z,58.62
2022-08-25T00:33:33.959Z,57.97
2022-08-25T00:34:10.079Z,57.93
2022-08-25T00:34:43.332Z,58.17
2022-08-25T00:35:16.728Z,58.69
2022-08-25T00:35:50.741Z,59.17
2022-08-25T00:36:23.832Z,59.65
2022-08-25T00:36:57.018Z,60.15
2022-08-25T00:37:30.170Z,60.75
2022-08-25T00:38:04.088Z,61.34
2022-08-25T00:38:38.442Z,61.79
2022-08-25T00:39:12.212Z,62.17
2022-08-25T00:39:46.109Z,62.72
2022-08-25T00:40:20.545Z,63.23
2022-08-25T00:41:06.460Z,62.81
2022-08-25T00:41:42.624Z,62.58
2022-08-25T00:42:16.230Z,61.21
2022-08-25T00:42:49.624Z,60.03
2022-08-25T00:43:23.373Z,59.31
2022-08-25T00:43:59.909Z,58.48
2022-08-25T00:44:34.399Z,58.00
2022-08-25T00:45:09.840Z,57.86
2022-08-25T00:45:43.179Z,58.27
2022-08-25T00:46:21.102Z,58.63
2022-08-25T00:46:57.963Z,58.93
2022-08-25T00:47:31.438Z,59.46
2022-08-25T00:48:05.216Z,59.92
2022-08-25T00:48:42.670Z,60.50
2022-08-25T00:49:24.947Z,60.69
2022-08-25T00:50:02.302Z,60.95
2022-08-25T00:50:35.489Z,61.59
2022-08-25T00:51:12.035Z,61.85
2022-08-25T00:51:49.866Z,62.04
2022-08-25T00:52:28.549Z,62.47
2022-08-25T00:53:04.578Z,63.13
2022-08-25T00:53:39.631Z,63.27
2022-08-25T00:54:23.179Z,62.76
2022-08-25T00:55:08.075Z,62.41
2022-08-25T00:55:41.950Z,61.55
2022-08-25T00:56:15.362Z,60.09
2022-08-25T00:56:52.364Z,59.52
2022-08-25T00:57:34.061Z,58.66
2022-08-25T00:58:20.560Z,58.24
2022-08-25T00:58:53.917Z,58.27
2022-08-25T00:59:28.135Z,58.95
2022-08-25T01:00:02.304Z,59.44
2022-08-25T01:00:39.817Z,60.01
2022-08-25T01:01:12.981Z,60.70
2022-08-25T01:01:46.437Z,61.20
2022-08-25T01:02:19.795Z,61.75
2022-08-25T01:02:53.017Z,62.18
2022-08-25T01:03:33.000Z,62.26
2022-08-25T01:04:08.693Z,62.42
2022-08-25T01:04:49.132Z,62.58
2022-08-25T01:05:22.652Z,63.41
2022-08-25T01:05:57.328Z,63.36
2022-08-25T01:06:36.436Z,61.32
2022-08-25T01:07:13.822Z,60.40
2022-08-25T01:07:52.637Z,59.80
2022-08-25T01:08:33.501Z,58.52
2022-08-25T01:09:07.750Z,57.43
2022-08-25T01:09:42.781Z,57.27
2022-08-25T01:10:18.935Z,57.77
2022-08-25T01:10:52.564Z,58.39
2022-08-25T01:11:27.068Z,59.10
2022-08-25T01:12:01.718Z,59.83
2022-08-25T01:12:37.623Z,60.50
2022-08-25T01:13:20.009Z,60.83
2022-08-25T01:13:56.164Z,60.95
2022-08-25T01:14:31.772Z,61.56
2022-08-25T01:15:07.076Z,62.09
2022-08-25T01:15:41.949Z,62.56
2022-08-25T01:16:16.646Z,63.11
2022-08-25T01:16:51.030Z,63.31
2022-08-25T01:17:35.182Z,62.93
2022-08-25T01:18:09.082Z,62.56
2022-08-25T01:18:51.461Z,61.17
2022-08-25T01:19:26.520Z,60.48
2022-08-25T01:19:59.678Z,59.20
2022-08-25T01:20:35.133Z,58.29
2022-08-25T01:21:08.278Z,58.24
2022-08-25T01:21:51.051Z,58.47
2022-08-25T01:22:26.940Z,58.98
2022-08-25T01:23:01.031Z,59.59
2022-08-25T01:23:34.500Z,60.14
2022-08-25T01:24:14.567Z,60.53
2022-08-25T01:24:57.288Z,60.71
2022-08-25T01:25:57.547Z,61.17
2022-08-25T01:26:33.799Z,61.50
2022-08-25T01:27:08.109Z,62.58
2022-08-25T01:27:41.202Z,63.06
2022-08-25T01:28:15.170Z,63.00
2022-08-25T01:29:09.117Z,62.45
2022-08-25T01:29:42.888Z,62.32
2022-08-25T01:30:16.261Z,60.42
2022-08-25T01:30:50.399Z,59.40
2022-08-25T01:31:24.451Z,58.50
2022-08-25T01:32:04.857Z,57.85
2022-08-25T01:32:38.144Z,57.58
2022-08-25T01:33:13.108Z,57.71
2022-08-25T01:33:46.340Z,57.92
2022-08-25T01:34:20.493Z,58.38
2022-08-25T01:34:53.664Z,58.97
2022-08-25T01:35:27.145Z,59.56
2022-08-25T01:36:00.396Z,60.08
2022-08-25T01:36:35.931Z,60.57
2022-08-25T01:37:12.083Z,61.02
2022-08-25T01:37:46.912Z,61.37
2022-08-25T01:38:21.306Z,62.03
2022-08-25T01:38:56.909Z,62.53
2022-08-25T01:39:34.128Z,63.22
2022-08-25T01:40:07.919Z,63.23
2022-08-25T01:40:43.185Z,62.49
2022-08-25T01:41:45.040Z,61.62
2022-08-25T01:43:00.384Z,61.45
2022-08-25T01:43:39.150Z,58.85
2022-08-25T01:44:16.157Z,57.17
2022-08-25T01:44:50.069Z,56.78
2022-08-25T01:45:23.473Z,57.17
2022-08-25T01:45:58.290Z,57.67
2022-08-25T01:46:32.861Z,58.45
2022-08-25T01:47:07.830Z,59.04
2022-08-25T01:47:41.408Z,59.56
2022-08-25T01:48:16.439Z,60.12
2022-08-25T01:48:49.727Z,60.65
2022-08-25T01:49:23.339Z,61.23
2022-08-25T01:49:56.794Z,61.82
2022-08-25T01:50:30.148Z,62.37
2022-08-25T01:51:03.302Z,62.81
2022-08-25T01:51:56.013Z,62.98
2022-08-25T01:52:35.218Z,63.29
2022-08-25T01:53:12.356Z,62.06
2022-08-25T01:53:45.565Z,61.05
2022-08-25T01:54:18.941Z,60.11
2022-08-25T01:54:52.169Z,59.34
2022-08-25T01:55:25.913Z,58.48
2022-08-25T01:56:06.509Z,57.93
2022-08-25T01:56:43.691Z,57.77
2022-08-25T01:57:16.900Z,58.27
2022-08-25T01:57:50.100Z,58.72
2022-08-25T01:58:26.715Z,59.37
2022-08-25T01:58:59.819Z,59.98
2022-08-25T01:59:33.429Z,60.58
2022-08-25T02:00:09.522Z,60.94
2022-08-25T02:00:46.764Z,61.27
2022-08-25T02:01:23.060Z,61.86
2022-08-25T02:01:59.730Z,62.58
2022-08-25T02:02:33.459Z,63.54
2022-08-25T02:03:08.474Z,63.58
2022-08-25T02:03:54.840Z,63.60
2022-08-25T02:04:32.536Z,62.09
2022-08-25T02:05:06.555Z,60.93
2022-08-25T02:05:39.701Z,59.72
2022-08-25T02:06:14.819Z,58.59
2022-08-25T02:06:47.846Z,57.69
2022-08-25T02:07:21.159Z,56.68
2022-08-25T02:07:54.975Z,56.26
2022-08-25T02:08:28.155Z,56.41
2022-08-25T02:09:12.106Z,57.12
2022-08-25T02:09:45.455Z,57.47
2022-08-25T02:10:19.133Z,58.34
2022-08-25T02:10:54.206Z,58.98
2022-08-25T02:11:28.624Z,59.69
2022-08-25T02:12:01.878Z,60.52
2022-08-25T02:12:37.201Z,61.15
2022-08-25T02:13:11.320Z,61.62
2022-08-25T02:13:47.911Z,62.08
2022-08-25T02:14:21.211Z,62.93
2022-08-25T02:14:54.343Z,63.71
2022-08-25T02:15:27.966Z,63.91
2022-08-25T02:16:02.473Z,63.53
2022-08-25T02:16:39.045Z,62.83
2022-08-25T02:17:12.451Z,62.22
2022-08-25T02:17:45.577Z,61.42
2022-08-25T02:18:19.979Z,60.58
2022-08-25T02:18:53.455Z,59.67
2022-08-25T02:19:26.800Z,58.70
2022-08-25T02:19:59.956Z,57.99
2022-08-25T02:20:33.107Z,57.78
2022-08-25T02:21:06.350Z,57.83
2022-08-25T02:21:40.286Z,58.16
2022-08-25T02:22:13.342Z,58.59
2022-08-25T02:22:53.077Z,59.11
2022-08-25T02:23:30.368Z,59.45
2022-08-25T02:24:04.595Z,60.37
2022-08-25T02:24:38.090Z,60.85
2022-08-25T02:25:11.751Z,61.28
2022-08-25T02:25:44.860Z,61.84
2022-08-25T02:26:20.180Z,62.29
2022-08-25T02:26:53.582Z,62.84
2022-08-25T02:27:26.795Z,63.39
2022-08-25T02:28:01.072Z,63.24
2022-08-25T02:28:34.819Z,62.80
2022-08-25T02:29:08.697Z,62.10
2022-08-25T02:29:42.136Z,61.06
2022-08-25T02:30:17.273Z,60.15
2022-08-25T02:30:53.318Z,59.12
2022-08-25T02:31:34.297Z,58.10
2022-08-25T02:32:08.274Z,57.49
2022-08-25T02:32:42.171Z,57.48
2022-08-25T02:33:15.463Z,57.82
2022-08-25T02:33:49.755Z,58.26
2022-08-25T02:34:24.261Z,58.64
2022-08-25T02:34:57.226Z,59.19
2022-08-25T02:35:31.351Z,59.88
2022-08-25T02:36:05.362Z,60.31
2022-08-25T02:36:40.473Z,60.88
2022-08-25T02:37:14.468Z,61.44
2022-08-25T02:37:47.915Z,61.73
2022-08-25T02:38:21.125Z,62.04
2022-08-25T02:38:54.716Z,62.37
2022-08-25T02:39:28.017Z,62.74
2022-08-25T02:40:01.726Z,63.15
2022-08-25T02:40:35.480Z,63.15
2022-08-25T02:41:12.995Z,62.50
2022-08-25T02:41:46.309Z,61.70
2022-08-25T02:42:19.545Z,60.83
2022-08-25T02:42:53.876Z,60.19
2022-08-25T02:43:28.312Z,59.29
2022-08-25T02:44:03.914Z,58.18
2022-08-25T02:44:37.385Z,57.68
2022-08-25T02:45:10.989Z,57.56
2022-08-25T02:45:44.248Z,57.89
2022-08-25T02:46:20.268Z,58.24
2022-08-25T02:46:53.401Z,58.61
2022-08-25T02:47:27.028Z,59.51
2022-08-25T02:48:00.649Z,60.11
2022-08-25T02:48:34.185Z,60.71
2022-08-25T02:49:09.356Z,61.20
2022-08-25T02:49:42.853Z,61.66
2022-08-25T02:50:16.542Z,62.22
2022-08-25T02:50:52.803Z,62.59
2022-08-25T02:51:30.360Z,63.16
2022-08-25T02:52:04.014Z,63.23
2022-08-25T02:52:38.560Z,62.45
2022-08-25T02:53:11.782Z,61.70
2022-08-25T02:53:47.197Z,60.86
2022-08-25T02:54:20.578Z,60.16
2022-08-25T02:54:55.792Z,59.09
2022-08-25T02:55:29.027Z,57.94
2022-08-25T02:56:02.479Z,57.55
2022-08-25T02:56:35.645Z,57.52
2022-08-25T02:57:08.872Z,57.78
2022-08-25T02:57:42.759Z,58.20
2022-08-25T02:58:16.158Z,58.79
2022-08-25T02:58:49.413Z,59.40
2022-08-25T02:59:22.624Z,59.97
2022-08-25T02:59:55.710Z,60.62
2022-08-25T03:00:28.983Z,61.15
2022-08-25T03:01:02.263Z,61.25
2022-08-25T03:01:35.614Z,61.41
2022-08-25T03:02:08.765Z,61.42
2022-08-25T03:02:43.224Z,61.66
2022-08-25T03:03:16.877Z,62.06
2022-08-25T03:03:52.676Z,62.54
2022-08-25T03:04:25.899Z,63.24
2022-08-25T03:04:59.290Z,63.10
2022-08-25T03:05:33.317Z,62.77
2022-08-25T03:06:13.002Z,61.89
2022-08-25T03:06:46.531Z,61.11
2022-08-25T03:07:22.399Z,59.95
2022-08-25T03:07:58.076Z,58.98
2022-08-25T03:08:31.349Z,57.62
2022-08-25T03:09:04.954Z,57.16
2022-08-25T03:09:38.409Z,57.33
2022-08-25T03:10:16.469Z,57.69
2022-08-25T03:10:49.681Z,58.02
2022-08-25T03:11:26.797Z,58.52
2022-08-25T03:12:00.104Z,59.01
2022-08-25T03:12:33.815Z,59.56
2022-08-25T03:13:07.167Z,59.67
2022-08-25T03:13:40.905Z,60.04
2022-08-25T03:14:14.253Z,60.34
2022-08-25T03:14:47.536Z,60.82
2022-08-25T03:15:21.287Z,61.30
2022-08-25T03:15:54.794Z,61.77
2022-08-25T03:16:29.732Z,62.25
2022-08-25T03:17:03.097Z,62.86
2022-08-25T03:17:45.596Z,63.37
2022-08-25T03:18:19.344Z,62.91
2022-08-25T03:18:52.437Z,61.99
2022-08-25T03:19:25.568Z,60.95
2022-08-25T03:19:59.000Z,59.98
2022-08-25T03:20:33.896Z,59.03
2022-08-25T03:21:07.497Z,57.90
2022-08-25T03:21:40.707Z,57.51
2022-08-25T03:22:13.887Z,57.72
2022-08-25T03:22:47.207Z,57.94
2022-08-25T03:23:21.087Z,58.27
2022-08-25T03:23:54.216Z,58.77
2022-08-25T03:24:28.490Z,59.46
2022-08-25T03:25:23.993Z,60.25
2022-08-25T03:26:16.175Z,60.61
2022-08-25T03:26:56.344Z,61.48
2022-08-25T03:27:30.738Z,62.07
2022-08-25T03:28:05.121Z,62.57
2022-08-25T03:28:39.186Z,63.21
2022-08-25T03:29:13.830Z,63.29
2022-08-25T03:29:47.400Z,62.80
2022-08-25T03:30:21.157Z,61.98
2022-08-25T03:30:55.877Z,61.43
2022-08-25T03:31:29.504Z,60.52
2022-08-25T03:32:03.168Z,59.32
2022-08-25T03:32:36.681Z,58.25
2022-08-25T03:33:10.433Z,57.64
2022-08-25T03:33:43.771Z,57.17
2022-08-25T03:34:18.551Z,57.21
2022-08-25T03:34:51.933Z,57.48
2022-08-25T03:35:25.229Z,58.23
2022-08-25T03:35:59.540Z,58.84
2022-08-25T03:36:32.738Z,58.99
2022-08-25T03:37:08.785Z,59.77
2022-08-25T03:37:42.040Z,60.43
2022-08-25T03:38:17.304Z,61.25
2022-08-25T03:38:51.345Z,61.77
2022-08-25T03:39:26.386Z,62.23
2022-08-25T03:40:00.255Z,62.34
2022-08-25T03:40:33.549Z,62.96
2022-08-25T03:41:16.016Z,63.01
2022-08-25T03:41:49.874Z,62.82
2022-08-25T03:42:23.190Z,61.44
2022-08-25T03:42:57.189Z,60.75
2022-08-25T03:43:30.385Z,59.85
2022-08-25T03:44:05.573Z,58.96
2022-08-25T03:44:38.689Z,58.08
2022-08-25T03:45:14.244Z,57.64
2022-08-25T03:45:48.191Z,57.68
2022-08-25T03:46:33.140Z,57.94
2022-08-25T03:47:06.642Z,58.36
2022-08-25T03:47:41.043Z,59.33
2022-08-25T03:48:15.668Z,59.91
2022-08-25T03:48:49.897Z,60.41
2022-08-25T03:49:24.659Z,60.79
2022-08-25T03:49:58.232Z,61.30
2022-08-25T03:50:31.890Z,61.97
2022-08-25T03:51:05.625Z,62.48
2022-08-25T03:51:43.779Z,63.24
2022-08-25T03:52:18.570Z,63.83
2022-08-25T03:52:57.364Z,63.82
2022-08-25T03:53:30.461Z,63.30
2022-08-25T03:54:05.532Z,62.40
2022-08-25T03:54:38.894Z,61.70
2022-08-25T03:55:14.903Z,61.00
2022-08-25T03:55:48.723Z,60.36
2022-08-25T03:56:22.044Z,59.60
2022-08-25T03:56:55.927Z,58.95
2022-08-25T03:57:29.324Z,58.33
2022-08-25T03:58:02.641Z,58.06
2022-08-25T03:58:35.739Z,58.16
2022-08-25T03:59:10.358Z,58.36
2022-08-25T03:59:43.686Z,58.86
2022-08-25T04:00:17.681Z,59.53
2022-08-25T04:00:51.002Z,60.17
2022-08-25T04:01:24.778Z,60.61
2022-08-25T04:01:58.294Z,61.33
2022-08-25T04:02:34.050Z,61.82
2022-08-25T04:03:07.302Z,62.00
2022-08-25T04:03:40.616Z,62.44
2022-08-25T04:04:15.705Z,63.04
2022-08-25T04:04:48.993Z,63.42
2022-08-25T04:05:22.555Z,63.30
2022-08-25T04:06:05.133Z,62.99
2022-08-25T04:06:43.726Z,62.32
2022-08-25T04:07:17.431Z,61.53
2022-08-25T04:07:50.656Z,60.74
2022-08-25T04:08:23.975Z,60.03
2022-08-25T04:08:58.979Z,59.36
2022-08-25T04:09:35.229Z,58.57
2022-08-25T04:10:11.334Z,58.26
2022-08-25T04:10:44.766Z,58.34
2022-08-25T04:11:21.335Z,58.84
2022-08-25T04:11:54.743Z,59.22
2022-08-25T04:12:27.945Z,60.09
2022-08-25T04:13:02.067Z,60.86
2022-08-25T04:13:36.439Z,61.47
2022-08-25T04:14:10.121Z,62.05
2022-08-25T04:14:49.421Z,62.67
2022-08-25T04:15:22.585Z,63.35
2022-08-25T04:15:55.736Z,63.26
2022-08-25T04:16:34.136Z,62.90
2022-08-25T04:17:08.687Z,62.67
2022-08-25T04:17:42.613Z,61.63
2022-08-25T04:18:16.660Z,60.83
2022-08-25T04:18:51.195Z,60.05
2022-08-25T04:19:24.426Z,59.27
2022-08-25T04:19:57.584Z,58.49
2022-08-25T04:20:30.741Z,58.07
2022-08-25T04:21:06.343Z,58.22
2022-08-25T04:21:40.934Z,58.53
2022-08-25T04:22:13.949Z,59.00
2022-08-25T04:22:47.200Z,59.56
2022-08-25T04:23:20.841Z,59.95
2022-08-25T04:23:55.600Z,60.43
2022-08-25T04:24:29.036Z,60.86
2022-08-25T04:25:02.652Z,61.58
2022-08-25T04:25:42.422Z,62.11
2022-08-25T04:26:37.475Z,62.64
2022-08-25T04:27:10.612Z,64.05
2022-08-25T04:27:43.684Z,63.04
2022-08-25T04:28:16.798Z,62.29
2022-08-25T04:28:51.095Z,61.35
2022-08-25T04:29:26.231Z,60.79
2022-08-25T04:29:59.683Z,60.03
2022-08-25T04:30:32.861Z,59.26
2022-08-25T04:31:10.237Z,58.51
2022-08-25T04:31:48.690Z,58.18
2022-08-25T04:32:22.813Z,58.09
2022-08-25T04:32:55.986Z,58.48
2022-08-25T04:33:29.930Z,59.22
2022-08-25T04:34:13.435Z,59.88
2022-08-25T04:34:59.296Z,60.08
2022-08-25T04:35:32.576Z,61.07
2022-08-25T04:36:11.892Z,61.66
2022-08-25T04:36:45.801Z,61.96
2022-08-25T04:37:25.904Z,62.69
2022-08-25T04:37:59.886Z,63.55
2022-08-25T04:38:33.844Z,63.76
2022-08-25T04:39:07.727Z,63.22
2022-08-25T04:39:41.559Z,62.42
2022-08-25T04:40:15.075Z,61.57
2022-08-25T04:40:56.874Z,60.80
2022-08-25T04:41:31.622Z,60.39
2022-08-25T04:42:05.563Z,59.31
2022-08-25T04:42:39.086Z,58.63
2022-08-25T04:43:12.744Z,58.34
2022-08-25T04:43:46.434Z,58.62
2022-08-25T04:44:19.802Z,58.98
2022-08-25T04:44:52.920Z,59.63
2022-08-25T04:45:26.194Z,60.43
2022-08-25T04:46:00.595Z,61.09
2022-08-25T04:46:34.987Z,61.61
2022-08-25T04:47:08.085Z,62.10
2022-08-25T04:47:41.245Z,62.63
2022-08-25T04:48:14.314Z,63.31
2022-08-25T04:48:49.408Z,63.39
2022-08-25T04:49:22.559Z,63.31
2022-08-25T04:49:55.680Z,62.71
2022-08-25T04:50:28.871Z,62.07
2022-08-25T04:51:10.494Z,61.38
2022-08-25T04:51:44.529Z,60.79
2022-08-25T04:52:17.865Z,59.92
2022-08-25T04:52:51.058Z,59.31
2022-08-25T04:53:24.254Z,58.62
2022-08-25T04:54:05.850Z,58.27
2022-08-25T04:54:38.989Z,58.28
2022-08-25T04:55:12.121Z,58.93
2022-08-25T04:55:48.060Z,59.44
2022-08-25T04:56:25.408Z,60.02
2022-08-25T04:56:59.015Z,60.62
2022-08-25T04:57:32.823Z,61.33
2022-08-25T04:58:07.045Z,61.93
2022-08-25T04:58:48.204Z,62.13
2022-08-25T04:59:21.687Z,63.22
2022-08-25T04:59:55.829Z,63.85
2022-08-25T05:00:29.315Z,63.86
2022-08-25T05:01:24.407Z,63.33
2022-08-25T05:02:02.870Z,63.40
2022-08-25T05:02:36.411Z,61.62
2022-08-25T05:03:10.112Z,60.59
2022-08-25T05:03:44.596Z,60.01
2022-08-25T05:04:27.727Z,59.38
2022-08-25T05:05:04.511Z,58.65
2022-08-25T05:05:38.375Z,58.45
2022-08-25T05:06:15.837Z,58.66
2022-08-25T05:06:49.684Z,59.21
2022-08-25T05:07:23.172Z,59.92
2022-08-25T05:07:56.893Z,60.44
2022-08-25T05:08:30.162Z,61.03
2022-08-25T05:09:05.402Z,61.61
2022-08-25T05:09:38.725Z,62.29
2022-08-25T05:10:12.285Z,62.95
2022-08-25T05:10:45.395Z,63.40
2022-08-25T05:11:19.847Z,63.51
2022-08-25T05:11:56.885Z,63.33
2022-08-25T05:12:30.729Z,62.54
2022-08-25T05:13:06.376Z,61.86
2022-08-25T05:13:41.404Z,60.96
2022-08-25T05:14:18.527Z,60.22
2022-08-25T05:14:55.104Z,59.81
2022-08-25T05:15:47.072Z,59.22
2022-08-25T05:16:26.338Z,58.53
2022-08-25T05:17:00.096Z,58.61
2022-08-25T05:17:33.330Z,58.87
2022-08-25T05:18:07.543Z,59.23
2022-08-25T05:18:41.555Z,60.01
2022-08-25T05:19:15.075Z,60.69
2022-08-25T05:19:48.246Z,61.11
2022-08-25T05:20:21.511Z,61.62
2022-08-25T05:20:56.373Z,62.20
2022-08-25T05:21:29.589Z,62.72
2022-08-25T05:22:02.697Z,63.11
2022-08-25T05:22:35.918Z,63.38
2022-08-25T05:23:09.144Z,62.98
2022-08-25T05:23:43.746Z,62.32
2022-08-25T05:24:16.920Z,61.52
2022-08-25T05:24:51.350Z,60.78
2022-08-25T05:25:24.816Z,60.25
2022-08-25T05:26:05.203Z,59.67
2022-08-25T05:26:38.607Z,59.30
2022-08-25T05:27:12.302Z,58.87
2022-08-25T05:27:45.478Z,58.81
2022-08-25T05:28:20.664Z,59.09
2022-08-25T05:28:55.454Z,59.71
2022-08-25T05:29:28.796Z,60.44
2022-08-25T05:30:02.057Z,61.29
2022-08-25T05:30:39.554Z,61.98
2022-08-25T05:31:14.908Z,62.66
2022-08-25T05:31:50.553Z,63.52
2022-08-25T05:32:24.710Z,63.67
2022-08-25T05:32:57.930Z,63.39
2022-08-25T05:33:32.709Z,63.07
2022-08-25T05:34:08.434Z,62.51
2022-08-25T05:34:41.545Z,61.85
2022-08-25T05:35:16.366Z,61.22
2022-08-25T05:35:49.492Z,60.81
2022-08-25T05:36:27.043Z,60.27
2022-08-25T05:37:03.665Z,59.92
2022-08-25T05:37:38.294Z,59.66
2022-08-25T05:38:15.344Z,58.97
2022-08-25T05:38:49.629Z,58.69
2022-08-25T05:39:22.808Z,58.79
2022-08-25T05:39:57.149Z,59.26
2022-08-25T05:40:31.104Z,59.69
2022-08-25T05:41:10.746Z,60.33
2022-08-25T05:41:44.435Z,61.04
2022-08-25T05:42:18.039Z,61.87
2022-08-25T05:42:51.621Z,62.62
2022-08-25T05:43:27.049Z,63.54
2022-08-25T05:44:00.405Z,63.64
2022-08-25T05:44:34.343Z,63.59
2022-08-25T05:45:08.465Z,63.06
2022-08-25T05:45:42.124Z,62.40
2022-08-25T05:46:16.676Z,61.89
2022-08-25T05:46:50.844Z,61.35
2022-08-25T05:47:24.345Z,60.76
2022-08-25T05:47:58.437Z,60.25
2022-08-25T05:48:31.619Z,59.76
2022-08-25T05:49:04.763Z,59.37
2022-08-25T05:49:37.981Z,58.99
2022-08-25T05:50:11.593Z,58.90
2022-08-25T05:50:52.515Z,59.24
2022-08-25T05:51:26.939Z,59.74
2022-08-25T05:52:00.191Z,60.26
2022-08-25T05:52:33.409Z,61.00
2022-08-25T05:53:06.787Z,61.75
2022-08-25T05:53:43.328Z,62.33
2022-08-25T05:54:16.677Z,62.83
2022-08-25T05:54:49.708Z,63.53
2022-08-25T05:55:22.853Z,63.72
2022-08-25T05:55:58.447Z,63.35
2022-08-25T05:56:31.724Z,62.72
2022-08-25T05:57:05.202Z,61.95
2022-08-25T05:57:38.806Z,61.37
2022-08-25T05:58:12.193Z,60.76
2022-08-25T05:58:47.935Z,60.20
2022-08-25T05:59:21.031Z,59.46
2022-08-25T05:59:54.198Z,59.04
2022-08-25T06:00:27.451Z,58.61
2022-08-25T06:01:21.450Z,58.47
2022-08-25T06:02:13.394Z,59.00
2022-08-25T06:02:48.790Z,59.46
2022-08-25T06:03:22.116Z,60.68
2022-08-25T06:03:55.461Z,61.31
2022-08-25T06:04:28.837Z,62.08
2022-08-25T06:05:02.370Z,62.84
2022-08-25T06:05:35.623Z,63.64
2022-08-25T06:06:09.329Z,63.84
2022-08-25T06:06:42.852Z,63.34
2022-08-25T06:07:16.242Z,62.51
2022-08-25T06:07:51.276Z,61.77
2022-08-25T06:08:24.485Z,61.00
2022-08-25T06:08:57.790Z,60.38
2022-08-25T06:09:31.070Z,59.83
2022-08-25T06:10:07.133Z,59.29
2022-08-25T06:10:40.429Z,58.87
2022-08-25T06:11:14.439Z,58.71
2022-08-25T06:11:52.844Z,58.86
2022-08-25T06:12:27.994Z,59.08
2022-08-25T06:13:01.178Z,60.00
2022-08-25T06:13:34.464Z,60.58
2022-08-25T06:14:09.288Z,61.12
2022-08-25T06:14:42.745Z,61.82
2022-08-25T06:15:22.218Z,62.52
2022-08-25T06:16:00.153Z,63.29
2022-08-25T06:16:33.603Z,63.62
2022-08-25T06:17:06.987Z,63.41
2022-08-25T06:17:43.304Z,62.54
2022-08-25T06:18:17.306Z,61.76
2022-08-25T06:18:50.924Z,61.06
2022-08-25T06:19:24.018Z,60.42
2022-08-25T06:19:57.657Z,60.00
2022-08-25T06:20:32.315Z,59.51
2022-08-25T06:21:14.602Z,59.21
2022-08-25T06:21:48.017Z,58.66
2022-08-25T06:22:22.051Z,58.34
2022-08-25T06:22:55.383Z,58.47
2022-08-25T06:23:28.705Z,58.81
2022-08-25T06:24:02.080Z,59.14
2022-08-25T06:24:35.526Z,59.59
2022-08-25T06:25:10.547Z,60.24
2022-08-25T06:25:50.392Z,60.90
2022-08-25T06:26:23.857Z,61.47
2022-08-25T06:26:58.188Z,62.36
2022-08-25T06:27:31.713Z,62.82
2022-08-25T06:28:05.119Z,63.21
2022-08-25T06:28:38.493Z,63.01
2022-08-25T06:29:14.344Z,62.23
2022-08-25T06:29:47.576Z,61.78
2022-08-25T06:30:24.584Z,60.84
2022-08-25T06:31:03.728Z,60.27
2022-08-25T06:31:36.942Z,59.15
2022-08-25T06:32:10.199Z,58.35
2022-08-25T06:32:45.351Z,58.00
2022-08-25T06:33:18.480Z,57.85
2022-08-25T06:33:52.593Z,57.96
2022-08-25T06:34:25.861Z,58.34
2022-08-25T06:34:59.538Z,58.94
2022-08-25T06:35:32.690Z,59.51
2022-08-25T06:36:09.049Z,59.61
2022-08-25T06:36:42.417Z,60.16
2022-08-25T06:37:15.633Z,60.45
2022-08-25T06:37:48.719Z,61.07
2022-08-25T06:38:22.365Z,61.57
2022-08-25T06:38:55.493Z,61.97
2022-08-25T06:39:29.383Z,62.47
2022-08-25T06:40:02.892Z,62.95
2022-08-25T06:40:36.404Z,63.33
2022-08-25T06:41:14.168Z,63.14
2022-08-25T06:41:51.734Z,62.65
2022-08-25T06:42:24.934Z,62.01
2022-08-25T06:42:58.073Z,60.97
2022-08-25T06:43:33.438Z,60.04
2022-08-25T06:44:06.577Z,58.92
2022-08-25T06:44:39.861Z,57.67
2022-08-25T06:45:13.031Z,57.26
2022-08-25T06:45:48.623Z,57.21
2022-08-25T06:46:35.927Z,57.34
2022-08-25T06:47:10.166Z,57.51
2022-08-25T06:47:45.621Z,58.32
2022-08-25T06:48:19.353Z,58.80
2022-08-25T06:48:53.161Z,59.56
2022-08-25T06:49:31.828Z,60.12
2022-08-25T06:50:07.944Z,60.69
2022-08-25T06:50:41.687Z,61.47
2022-08-25T06:51:18.412Z,62.27
2022-08-25T06:51:51.679Z,62.84
2022-08-25T06:52:29.225Z,63.30
2022-08-25T06:53:02.820Z,63.05
2022-08-25T06:53:36.775Z,62.36
2022-08-25T06:54:10.587Z,61.80
2022-08-25T06:54:43.822Z,60.87
2022-08-25T06:55:21.991Z,60.06
2022-08-25T06:56:02.270Z,59.21
2022-08-25T06:56:40.104Z,58.53
2022-08-25T06:57:13.860Z,57.42
2022-08-25T06:57:47.073Z,57.64
2022-08-25T06:58:20.209Z,57.84
2022-08-25T06:58:53.221Z,58.15
2022-08-25T06:59:32.156Z,58.47
2022-08-25T07:00:08.804Z,59.01
2022-08-25T07:00:42.016Z,59.57
2022-08-25T07:01:25.763Z,60.07
2022-08-25T07:01:59.820Z,60.42
2022-08-25T07:02:35.465Z,60.97
2022-08-25T07:03:08.642Z,61.30
2022-08-25T07:03:42.190Z,61.34
2022-08-25T07:04:15.523Z,61.44
2022-08-25T07:04:48.726Z,61.62
2022-08-25T07:05:33.619Z,61.75
2022-08-25T07:06:13.971Z,61.51
2022-08-25T07:06:48.401Z,61.79
2022-08-25T07:07:21.611Z,61.73
2022-08-25T07:07:55.383Z,61.82
2022-08-25T07:08:28.435Z,61.94
2022-08-25T07:09:04.864Z,62.21
2022-08-25T07:09:39.252Z,62.53
2022-08-25T07:10:13.801Z,62.91
2022-08-25T07:10:52.813Z,63.02
2022-08-25T07:11:26.776Z,62.09
2022-08-25T07:11:59.943Z,61.02
2022-08-25T07:12:33.052Z,60.05
2022-08-25T07:13:06.315Z,59.20
2022-08-25T07:13:39.454Z,58.82
2022-08-25T07:14:14.753Z,58.42
2022-08-25T07:15:03.610Z,58.31
2022-08-25T07:15:42.645Z,58.39
2022-08-25T07:16:20.979Z,58.95
2022-08-25T07:16:54.284Z,59.38
2022-08-25T07:17:27.651Z,59.72
2022-08-25T07:18:00.949Z,60.05
2022-08-25T07:18:35.693Z,60.79
2022-08-25T07:19:09.733Z,60.97
2022-08-25T07:19:48.044Z,61.23
2022-08-25T07:21:00.200Z,61.15
2022-08-25T07:21:37.488Z,61.59
2022-08-25T07:22:10.668Z,61.82
2022-08-25T07:22:43.920Z,61.90
2022-08-25T07:23:17.005Z,61.97
2022-08-25T07:23:50.156Z,62.01
2022-08-25T07:24:23.526Z,61.75
2022-08-25T07:24:56.630Z,61.99
2022-08-25T07:25:30.193Z,62.37
2022-08-25T07:26:36.415Z,62.74
2022-08-25T07:27:08.703Z,63.87
2022-08-25T07:27:42.329Z,62.37
2022-08-25T07:28:17.189Z,61.61
2022-08-25T07:28:50.984Z,60.49
2022-08-25T07:30:21.989Z,58.23
2022-08-25T07:30:56.714Z,57.32
2022-08-25T07:31:31.616Z,56.79
2022-08-25T07:32:06.884Z,56.83
2022-08-25T07:32:42.259Z,57.01
2022-08-25T07:33:16.287Z,57.36
2022-08-25T07:34:08.323Z,57.86
2022-08-25T07:35:01.256Z,58.72
2022-08-25T07:35:37.806Z,58.68
2022-08-25T07:36:11.111Z,59.15
2022-08-25T07:36:44.769Z,59.64
2022-08-25T07:37:27.498Z,60.11